Flight Track Log - Related Links

Times and Time Zones

All times are in EDT time to prevent confusion due to time zone crossing. See the N877PM flight status page for this flight to view local times or setup timezone preferences in your user account.

Time Position Orientation Groundspeed Altitude Reporting Facility
EDT Latitude Longitude Course Direction KTS MPH feet Rate Location/Type
Sun 05:01:53 PM 26.1883 -81.8781 350° North 193 222 5,800  Level Miami Center
Sun 05:02:53 PM 26.2389 -81.8708 North 188 216 7,700 1,850 Climbing Miami Center
Sun 05:03:53 PM 26.2933 -81.8617 North 188 216 9,500 1,750 Climbing Miami Center
Sun 05:04:53 PM 26.3481 -81.8522 North 194 223 11,200 1,600 Climbing Miami Center
Sun 05:05:00 PM 26.6550 -81.6915 346° North  Level Estimated
Sun 05:05:53 PM 26.4044 -81.8453 North 199 229 12,700  Level Miami Center
Sun 05:06:00 PM 26.7383 -81.7085 350° North  Level FlightAware Approximate
Sun 05:06:53 PM 26.4508 -81.8358 10° North 199 229 12,700  Level Miami Center
Sun 05:07:53 PM 26.5158 -81.8269 North 336 387 15,300 2,000 Climbing Miami Center
Sun 05:08:53 PM 26.5789 -81.8133 11° North 282 325 16,700 850 Climbing Miami Center
Sun 05:09:53 PM 26.6439 -81.8044 North 247 284 17,000 150 Climbing Miami Center
Sun 05:10:53 PM 26.7258 -81.7939 North 255 293 17,000 200 Level Miami Center
Sun 05:11:53 PM 26.8222 -81.7769 North 303 349 17,400 950 Climbing Miami Center
Sun 05:12:53 PM 26.8936 -81.7661 North 304 350 18,900 1,500 Climbing Miami Center
Sun 05:13:53 PM 26.9650 -81.7550 North 280 322 20,400 1,300 Climbing Miami Center
Sun 05:14:53 PM 27.0425 -81.7492 North 254 292 21,500 1,200 Climbing Miami Center
Sun 05:15:53 PM 27.1106 -81.7731 343° North 247 284 22,800 1,150 Climbing Miami Center
Sun 05:16:53 PM 27.1767 -81.7944 344° North 252 290 23,800 950 Climbing Miami Center
Sun 05:17:53 PM 27.2431 -81.8042 353° North 252 290 24,700 1,000 Climbing Miami Center
Sun 05:18:53 PM 27.3142 -81.7978 North 257 296 25,800 1,200 Climbing Miami Center
Sun 05:19:53 PM 27.3917 -81.7894 North 257 296 27,100 1,100 Climbing Miami Center
Sun 05:20:53 PM 27.4650 -81.7833 North 257 296 28,000 1,000 Climbing Miami Center
Sun 05:21:53 PM 27.5361 -81.7769 North 257 296 29,100 1,000 Climbing Miami Center
Sun 05:22:53 PM 27.5989 -81.7703 North 257 296 30,000 1,050 Climbing Miami Center
Sun 05:23:53 PM 27.6744 -81.7642 North 252 290 31,200 1,000 Climbing Miami Center
Sun 05:24:53 PM 27.7392 -81.7578 North 247 284 32,000 750 Climbing Miami Center
Sun 05:25:53 PM 27.8064 -81.7511 North 234 269 32,700 600 Climbing Miami Center
Sun 05:26:53 PM 27.8647 -81.7467 North 234 269 33,200 650 Climbing Miami Center
Sun 05:27:53 PM 27.9275 -81.7422 North 234 269 34,000 700 Climbing Miami Center
Sun 05:28:53 PM 27.9925 -81.7356 North 234 269 34,600 600 Climbing Miami Center
Sun 05:29:53 PM 28.0575 -81.7292 North 234 269 35,200 600 Climbing Miami Center
Sun 05:30:53 PM 28.1203 -81.7247 North 234 269 35,800 550 Climbing Miami Center
Sun 05:31:53 PM 28.1872 -81.7181 North 234 269 36,300 500 Climbing Miami Center
Sun 05:32:53 PM 28.2561 -81.7117 North 234 269 36,800 412 Climbing Miami Center
Sun 05:33:35 PM 28.3072 -81.7044 North 234 269 37,000 118 Climbing Jacksonville Center
Sun 05:34:35 PM 28.3803 -81.6964 North 252 290 37,000  Level Jacksonville Center
Sun 05:35:35 PM 28.4636 -81.6953 North 265 305 37,000  Level Jacksonville Center
Sun 05:36:35 PM 28.5469 -81.6850 North 279 321 37,000  Level Jacksonville Center
Sun 05:37:35 PM 28.6325 -81.6769 North 291 335 37,000  Level Jacksonville Center
Sun 05:38:35 PM 28.7181 -81.6686 North 298 343 37,000  Level Jacksonville Center
Sun 05:39:35 PM 28.8056 -81.6606 North 309 356 37,000  Level Jacksonville Center
Sun 05:40:35 PM 28.8931 -81.6522 North 309 356 37,000  Level Jacksonville Center
Sun 05:41:35 PM 28.9786 -81.6442 North 309 356 37,000  Level Jacksonville Center
Sun 05:42:34 PM 29.0661 -81.6358 North 309 356 37,000  Level Jacksonville Center
Sun 05:43:35 PM 29.1558 -81.6275 North 309 356 37,000  Level Jacksonville Center
Sun 05:44:35 PM 29.2331 -81.6194 North 310 357 37,000  Level Jacksonville Center
Sun 05:45:35 PM 29.3269 -81.6086 North 315 362 37,000  Level Jacksonville Center
Sun 05:46:35 PM 29.4167 -81.6003 North 320 368 37,000  Level Jacksonville Center
Sun 05:47:35 PM 29.5103 -81.5919 North 328 377 37,000  Level Jacksonville Center
Sun 05:48:35 PM 29.6000 -81.5836 North 328 377 37,000  Level Jacksonville Center
Sun 05:49:35 PM 29.6897 -81.5753 North 328 377 37,000  Level Jacksonville Center
Sun 05:50:35 PM 29.7794 -81.5644 North 328 377 37,000  Level Jacksonville Center
Sun 05:51:35 PM 29.8692 -81.5561 North 328 377 37,000  Level Jacksonville Center
Sun 05:52:35 PM 29.9608 -81.5475 North 328 377 37,000  Level Jacksonville Center
Sun 05:53:35 PM 30.0506 -81.5367 North 328 377 37,000  Level Jacksonville Center
Sun 05:54:35 PM 30.1422 -81.5283 North 328 377 37,000  Level Jacksonville Center
Sun 05:55:35 PM 30.2342 -81.5172 North 328 377 37,000  Level Jacksonville Center
Sun 05:56:35 PM 30.3278 -81.5089 North 333 383 37,000  Level Jacksonville Center
Sun 05:57:35 PM 30.4194 -81.4906 10° North 333 383 37,000  Level Jacksonville Center
Sun 05:58:35 PM 30.5111 -81.4653 13° North 333 383 37,000  Level Jacksonville Center
Sun 05:59:35 PM 30.6028 -81.4419 12° North 333 383 37,000  Level Jacksonville Center
Sun 06:00:35 PM 30.6922 -81.4189 12° North 333 383 37,000  Level Jacksonville Center
Sun 06:01:35 PM 30.7881 -81.4031 North 333 383 37,000  Level Jacksonville Center
Sun 06:02:35 PM 30.8800 -81.3919 North 333 383 37,000  Level Jacksonville Center
Sun 06:03:35 PM 30.9717 -81.3831 North 333 383 37,000  Level Jacksonville Center
Sun 06:04:35 PM 31.0656 -81.3719 North 333 383 37,000  Level Jacksonville Center
Sun 06:05:35 PM 31.1572 -81.3631 North 333 383 37,000  Level Jacksonville Center
Sun 06:06:35 PM 31.2511 -81.3544 North 333 383 37,000  Level Jacksonville Center
Sun 06:07:35 PM 31.3406 -81.3406 North 328 377 37,000  Level Jacksonville Center
Sun 06:08:35 PM 31.4386 -81.3292 North 328 377 37,000  Level Jacksonville Center
Sun 06:09:35 PM 31.5344 -81.3181 North 328 377 37,000  Level Jacksonville Center
Sun 06:10:35 PM 31.6181 -81.3092 North 328 377 37,000 -200 Level Jacksonville Center
Sun 06:11:35 PM 31.7203 -81.3000 North 328 377 36,600 -700 Descending Jacksonville Center
Sun 06:12:35 PM 31.8181 -81.2886 North 342 394 35,600 -800 Descending Jacksonville Center
Sun 06:13:35 PM 31.9225 -81.2769 North 371 427 35,000 -300 Descending Jacksonville Center
Sun 06:14:35 PM 32.0183 -81.2656 North 366 421 35,000  Level Jacksonville Center
Sun 06:15:35 PM 32.1183 -81.2564 North 352 405 35,000  Level Jacksonville Center
Sun 06:16:35 PM 32.2122 -81.2450 North 343 395 35,000  Level Jacksonville Center
Sun 06:17:35 PM 32.3081 -81.2358 North 347 399 35,000  Level Jacksonville Center
Sun 06:18:35 PM 32.4019 -81.2244 North 342 394 35,000  Level Jacksonville Center
Sun 06:19:35 PM 32.5019 -81.2150 North 349 402 35,000  Level Jacksonville Center
Sun 06:20:35 PM 32.5853 -81.2061 North 344 396 35,000  Level Jacksonville Center
Sun 06:21:35 PM 32.6917 -81.1919 North 344 396 35,000  Level Jacksonville Center
Sun 06:22:35 PM 32.7894 -81.1775 North 350 403 35,000  Level Jacksonville Center
Sun 06:23:35 PM 32.8789 -81.1389 20° North 350 403 35,000  Level Jacksonville Center
Sun 06:24:35 PM 32.9678 -81.0900 25° Northeast 350 403 35,000  Level Jacksonville Center
Sun 06:25:35 PM 33.0589 -81.0386 25° Northeast 350 403 35,000  Level Jacksonville Center
Sun 06:26:35 PM 33.1481 -80.9872 26° Northeast 355 409 35,000  Level Jacksonville Center
Sun 06:27:35 PM 33.2369 -80.9381 25° Northeast 355 409 35,000  Level Jacksonville Center
Sun 06:28:35 PM 33.3300 -80.8889 24° Northeast 355 409 35,000 -303 Level Jacksonville Center
Sun 06:29:34 PM 33.4211 -80.8394 24° Northeast 355 409 34,400 -958 Descending Jacksonville Center
Sun 06:30:34 PM 33.5161 -80.7825 27° Northeast 360 414 33,100 -1,250 Descending Jacksonville Center
Sun 06:31:34 PM 33.6156 -80.7278 25° Northeast 370 426 31,900 -1,300 Descending Jacksonville Center
Sun 06:32:34 PM 33.7147 -80.6728 25° Northeast 380 437 30,500 -1,240 Descending Jacksonville Center
Sun 06:33:35 PM 33.8139 -80.6178 25° Northeast 385 443 29,400 -1,200 Descending Jacksonville Center
Sun 06:34:34 PM 33.9131 -80.5628 25° Northeast 385 443 28,100 -1,160 Descending Jacksonville Center
Sun 06:35:34 PM 34.0100 -80.5075 25° Northeast 385 443 27,100 -1,000 Descending Jacksonville Center
Sun 06:36:34 PM 34.1092 -80.4497 26° Northeast 385 443 26,100 -1,250 Descending Jacksonville Center
Sun 06:37:34 PM 34.2081 -80.3942 25° Northeast 380 437 24,600 -1,500 Descending Jacksonville Center
Sun 06:38:34 PM 34.3050 -80.3386 25° Northeast 380 437 23,100 -800 Descending Jacksonville Center
Sun 06:39:34 PM 34.4019 -80.2831 25° Northeast 380 437 23,000 -32 Descending Jacksonville Center
Sun 06:41:42 PM 34.5889 -80.1733 26° Northeast 353 406 23,000  Level Washington Center
Sun 06:42:42 PM 34.6719 -80.1275 24° Northeast 358 412 23,000  Level Washington Center
Sun 06:43:43 PM 34.7639 -80.0744 25° Northeast 358 412 23,000  Level Washington Center
Sun 06:44:41 PM 34.8439 -79.9978 38° Northeast 358 412 23,000  Level Washington Center
Sun 06:45:42 PM 34.9156 -79.9181 42° Northeast 358 412 23,000 -639 Level Washington Center
Sun 06:46:43 PM 34.9939 -79.8336 41° Northeast 353 406 21,700 -1,450 Descending Washington Center
Sun 06:47:42 PM 35.0719 -79.7439 43° Northeast 368 423 20,100 -1,650 Descending Washington Center
Sun 06:48:43 PM 35.1544 -79.6542 42° Northeast 380 437 18,400 -1,563 Descending Washington Center
Sun 06:49:41 PM 35.2567 -79.5931 26° Northeast 385 443 17,000 -1,462 Descending Washington Center
Sun 06:50:42 PM 35.3547 -79.5956 359° North 370 426 15,500 -1,438 Descending Washington Center
Sun 06:51:42 PM 35.4689 -79.6061 356° North 370 426 14,100 -1,400 Descending Washington Center
Sun 06:53:00 PM 35.5714 -79.6254 332° Northwest  Level FlightAware Approximate
Sun 07:00:00 PM 36.0695 -79.9537 28° Northeast  Level FlightAware Approximate
Sun 07:01:00 PM 36.1000 -79.9333 28° Northeast  Level FlightAware Approximate
Sun 07:02:00 PM 36.1013 -79.9411 28° Northeast  Level Estimated
Sun 07:03:00 PM 36.1000 -79.9333 28° Northeast  Level FlightAware Approximate
Sun 07:04:00 PM 36.1013 -79.9411 28° Northeast  Level Estimated
Sun 07:05:00 PM 36.1000 -79.9333 28° Northeast  Level FlightAware Approximate
Sun 07:06:00 PM 36.1013 -79.9411 28° Northeast  Level Estimated
Sun 07:07:00 PM 36.1000 -79.9333 28° Northeast  Level FlightAware Approximate
Sun 07:08:00 PM 36.1013 -79.9411 28° Northeast  Level Estimated

Login

Don't have an account? Register now (free) for customized features, flight alerts, and more!